Skip Navigation Links
NOAA logo - Click to go to the NOAA homepage
NOAA's National Weather Service
Alaska Aviation Weather Unit
  NWS logo - Click to go to the NWS homepage
Left Navbar Graphic     09 AKDT = 17 GMT

   
NOAA is celebrating 200 years of science, service, and stewardship. Visit the NOAA 200th celebration Web site to learn more.
USA.gov is the U.S. Government's official Web portal to all Federal, state and local government Web resources and services.
Facebook
NWS on Facebook

Important Change Regarding the AAWU Web Presence

 

Over the last several months, the AAWU has been working to navigate its webpages to a nationally supported server. Security, as well as other needs, have necessitated the change.  In the process, we have made an effort to enhance the functionality of our website, as well as some of our products. As of June 20, 2017, aawu.arh.noaa.gov will be discontinued. The new AAWU web address is weather.gov/aawu. It is now live and will run in-parallel with the old site until it is discontinued. Please send any feedback or questions regarding the new webpages to nws.ar.aawu.webauthors@noaa.gov.  Thank you for your patience during this time of transition.
AAWU Home :: Display TAF Add Bookmark
METAR PATO 271153Z AUTO 16009G14KT 10SM -RA BKN028 BKN033 OVC050
    04/01 A3017 RMK AO2 RAB49 SLP217 P0000 60000 T00390011 10056
    20039 57002 TSNO=

METAR PATO 271253Z AUTO 13005KT 6SM -RA BR BKN023 OVC035 03/02 A3017 RMK
     AO2 SLP217 P0000 T00330017 TSNO=

PATO 271353Z AUTO VRB06KT 10SM SCT022 BKN029 OVC036 04/01 A3016
     RMK AO2 RAE49 SLP215 P0000 T00390011 TSNO=

SPECI PATO 271401Z AUTO 07007KT 10SM FEW022 OVC033 04/01 A3016 RMK
    AO2 T00440006 TSNO=

METAR PATO 271453Z AUTO 15007KT 100V190 10SM SCT033 BKN042 OVC085
    04/01 A3017 RMK AO2 RAB06E33 SLP216 P0000 60000 T00390006 55001
    TSNO=

SPECI PATO 271540Z AUTO VRB04KT 5SM -RA BR SCT021 BKN027 OVC032 03/01
     A3017 RMK AO2 RAB08 P0000 T00330011 TSNO=

METAR PATO 271553Z AUTO VRB06KT 4SM -RA BR BKN025 OVC033 03/01 A3017 RMK
     AO2 RAB08 SLP216 P0000 T00280011 TSNO=

SPECI PATO 271610Z AUTO 07007KT 10SM -RA FEW023 BKN034 OVC050 04/01
     A3016 RMK AO2 P0000 T00440011 TSNO=

METAR PATO 271653Z AUTO 14007KT 100V170 9SM -RA FEW024 BKN034 OVC044
    04/01 A3016 RMK AO2 SLP215 P0000 T00390011 TSNO=


NOAA's National Weather Service
Alaska Aviation Weather Unit
6930 Sand Lake Road
Anchorage, AK 99502-1845
Disclaimer
Credits
Glossary
Privacy Policy
About Us
Career Opportunities
Contact AAWU Internet Services Site last modified: April, 17th 2012